• Join FlightAware (Why Join?)
  • Login
  • US Flag 
12:03AM EST


 

Airport Tracker/Info


-or-


 

Live Flight TrackerFlight Track Log ✈ UAL139 ✈ 21-Aug-2013 ✈ KDEN - RJAA / NRT

Flight Track Log - Related Links

Times and Time Zones

All times are in EDT time to prevent confusion due to time zone crossing. See the UAL139 flight status page for this flight to view local times or setup timezone preferences in your user account.

Time Position Orientation Groundspeed Altitude Reporting Facility
EDT Latitude Longitude Course Direction KTS MPH feet Rate Location/Type
03:26PM 39.8630 -104.6960 322° Northwest 129 148 5,100  Level FlightAware
03:26PM 39.8781 -104.6960 360° North 152 175 5,100 660 Level FlightAware ADS-B
03:27PM 39.8934 -104.6960 360° North 209 241 5,500 1,680 Climbing FlightAware ADS-B
03:27PM 39.9026 -104.6960 360° North 212 244 5,800 1,980 Climbing FlightAware ADS-B
03:27PM 39.9083 -104.6960 360° North 213 245 6,000 2,160 Climbing FlightAware ADS-B
03:27PM 39.9215 -104.6970 357° North 215 247 6,500 1,740 Climbing FlightAware ADS-B
03:27PM 39.9323 -104.6980 356° North 226 260 6,700 540 Climbing FlightAware ADS-B
03:27PM 39.9435 -104.6990 356° North 240 276 6,700 240 Level FlightAware ADS-B
03:28PM 39.9565 -104.7000 357° North 256 295 6,800 1,500 Climbing FlightAware ADS-B
03:28PM 39.9760 -104.7020 356° North 263 303 7,400 1,740 Climbing FlightAware ADS-B
03:28PM 39.9937 -104.7030 358° North 274 315 7,700 1,500 Climbing FlightAware ADS-B
03:28PM 40.0113 -104.7050 355° North 283 326 8,100 2,040 Climbing FlightAware ADS-B
03:29PM 40.0321 -104.7060 358° North 286 329 8,700 2,100 Climbing FlightAware ADS-B
03:29PM 40.0525 -104.7070 358° North 286 329 9,200 1,920 Climbing FlightAware ADS-B
03:29PM 40.0690 -104.7080 357° North 287 330 9,600 1,380 Climbing FlightAware ADS-B
03:29PM 40.0871 -104.7090 358° North 294 338 9,800 1,500 Climbing FlightAware ADS-B
03:30PM 40.1364 -104.7100 359° North 312 359 10,800 1,500 Climbing FlightAware ADS-B
03:30PM 40.1831 -104.7100 360° North 346 398 11,400 1,200 Climbing FlightAware ADS-B
03:30PM 40.1906 -104.7100 360° North 351 404 11,500 780 Climbing FlightAware ADS-B
03:31PM 40.2061 -104.7110 357° North 359 413 11,600 780 Climbing FlightAware ADS-B
03:31PM 40.2151 -104.7130 350° North 363 418 11,700 1,500 Climbing FlightAware ADS-B
03:31PM 40.2273 -104.7160 349° North 368 423 11,900 1,500 Climbing FlightAware ADS-B
03:31PM 40.2410 -104.7220 342° North 372 428 12,100 1,500 Climbing FlightAware ADS-B
03:31PM 40.2525 -104.7290 335° Northwest 374 430 12,300 2,100 Climbing FlightAware ADS-B
03:32PM 40.2995 -104.7600 333° Northwest 381 438 13,400 2,160 Climbing FlightAware ADS-B
03:32PM 40.3476 -104.7920 333° Northwest 388 447 14,500 2,160 Climbing FlightAware ADS-B
03:33PM 40.3960 -104.8240 333° Northwest 393 452 15,600 2,100 Climbing FlightAware ADS-B
03:33PM 40.4456 -104.8560 334° Northwest 401 461 16,600 1,920 Climbing FlightAware ADS-B
03:34PM 40.4964 -104.8900 333° Northwest 406 467 17,600 2,040 Climbing FlightAware ADS-B
03:34PM 40.5474 -104.9240 333° Northwest 409 471 18,700 2,100 Climbing FlightAware ADS-B
03:35PM 40.5988 -104.9580 333° Northwest 415 478 19,700 1,860 Climbing FlightAware ADS-B
03:35PM 40.6508 -104.9920 334° Northwest 419 482 20,600 1,680 Climbing FlightAware ADS-B
03:35PM 40.6820 -105.0130 333° Northwest 422 486 21,100 1,560 Climbing FlightAware ADS-B
03:36PM 40.7362 -105.0620 326° Northwest 420 483 22,000 1,560 Climbing FlightAware ADS-B
03:36PM 40.7841 -105.1090 323° Northwest 428 493 22,800 1,620 Climbing FlightAware ADS-B
03:37PM 40.8452 -105.1700 323° Northwest 432 497 23,900 1,560 Climbing FlightAware ADS-B
03:38PM 40.9080 -105.2350 322° Northwest 435 501 24,900 1,320 Climbing FlightAware
03:38PM 40.9640 -105.2960 321° Northwest 441 507 25,600 1,080 Climbing FlightAware
03:39PM 41.0230 -105.3630 319° Northwest 449 517 26,300 1,080 Climbing FlightAware
03:40PM 41.0750 -105.4210 320° Northwest 456 525 26,900 1,140 Climbing FlightAware
03:40PM 41.1290 -105.4830 319° Northwest 463 533 27,600 1,200 Climbing FlightAware
03:41PM 41.1910 -105.5540 319° Northwest 466 536 28,400 1,200 Climbing FlightAware
03:41PM 41.2470 -105.6180 319° Northwest 470 541 29,100 1,200 Climbing FlightAware
03:42PM 41.3060 -105.6840 320° Northwest 474 545 29,800 1,200 Climbing FlightAware
03:42PM 41.3580 -105.7580 313° West 471 542 30,500 1,140 Climbing FlightAware
03:43PM 41.4020 -105.8380 306° West 474 545 31,100 1,200 Climbing FlightAware
03:44PM 41.4480 -105.9210 306° West 471 542 31,900 1,140 Climbing FlightAware
03:44PM 41.4940 -106.0050 306° West 473 544 32,500 1,380 Climbing FlightAware
03:45PM 41.5410 -106.0900 306° West 465 535 33,600 1,560 Climbing FlightAware
03:45PM 41.5810 -106.1630 306° West 461 531 34,300 1,140 Climbing FlightAware
03:46PM 41.6260 -106.2460 306° West 459 528 34,900 960 Climbing FlightAware
03:47PM 41.6720 -106.3290 307° West 458 527 35,500 900 Climbing FlightAware
03:47PM 41.7130 -106.4050 306° West 459 528 36,000 360 Climbing FlightAware
03:48PM 41.7660 -106.5060 305° West 464 534 36,000  Level FlightAware
03:49PM 41.8060 -106.5820 305° West 464 534 36,000  Level FlightAware
03:49PM 41.8440 -106.6540 305° West 464 534 36,000  Level FlightAware
03:50PM 41.8820 -106.7270 305° West 464 534 36,000  Level FlightAware
03:50PM 41.9170 -106.7950 305° West 464 534 36,000  Level FlightAware
03:51PM 41.9550 -106.8670 305° West 464 534 36,000  Level FlightAware
03:52PM 41.9920 -106.9400 304° West 464 534 36,000  Level FlightAware
03:52PM 42.0310 -107.0140 305° West 464 534 36,000  Level FlightAware
03:53PM 42.0690 -107.0860 305° West 464 534 36,000  Level FlightAware
03:53PM 42.1060 -107.1590 304° West 464 534 36,000  Level FlightAware
03:54PM 42.1440 -107.2320 305° West 464 534 36,000  Level FlightAware
03:55PM 42.1940 -107.3280 305° West 464 534 36,000  Level FlightAware
03:55PM 42.2330 -107.4030 305° West 464 534 36,000  Level FlightAware
03:56PM 42.2720 -107.4780 305° West 464 534 36,000  Level FlightAware
03:57PM 42.3100 -107.5500 306° West 464 534 36,000  Level FlightAware
03:57PM 42.3480 -107.6250 304° West 464 534 36,000  Level FlightAware
03:58PM 42.4981 -107.8872 304° West 466 536 36,000  Level Salt Lake Center
03:59PM 42.5697 -108.0272 305° West 471 542 36,000  Level Salt Lake Center
04:00PM 42.6528 -108.1906 305° West 472 543 36,000  Level Salt Lake Center
04:01PM 42.7239 -108.3322 304° West 475 547 36,000  Level Salt Lake Center
04:02PM 42.8075 -108.4953 305° West 473 544 36,000  Level Salt Lake Center
04:03PM 42.8794 -108.6378 305° West 476 548 36,000  Level Salt Lake Center
04:04PM 42.9622 -108.8056 304° West 479 551 36,000  Level Salt Lake Center
04:05PM 43.0331 -108.9461 305° West 473 544 36,000  Level Salt Lake Center
04:06PM 43.1172 -109.1156 304° West 480 552 36,000  Level Salt Lake Center
04:07PM 43.1889 -109.2600 304° West 481 554 36,000  Level Salt Lake Center
04:08PM 43.2606 -109.4058 304° West 483 556 36,000  Level Salt Lake Center
04:09PM 43.3417 -109.5792 303° West 484 557 36,000  Level Salt Lake Center
04:10PM 43.4272 -109.7150 311° West 493 567 36,000  Level Salt Lake Center
04:11PM 43.5319 -109.8728 313° West 491 565 36,000  Level Salt Lake Center
04:12PM 43.6042 -110.0228 304° West 499 574 36,000  Level Salt Lake Center
04:13PM 43.6789 -110.2028 300° West 486 559 36,000  Level Salt Lake Center
04:14PM 43.7419 -110.3614 299° West 491 565 36,000  Level Salt Lake Center
04:15PM 43.8056 -110.5189 299° West 491 565 36,000  Level Salt Lake Center
04:16PM 43.8783 -110.7056 298° West 492 566 36,000  Level Salt Lake Center
04:17PM 43.9408 -110.8642 299° West 488 562 36,000  Level Salt Lake Center
04:18PM 44.0106 -111.0500 298° West 486 559 36,000  Level Salt Lake Center
04:19PM 44.0725 -111.2072 299° West 483 556 36,000  Level Salt Lake Center
04:20PM 44.1442 -111.3922 298° West 484 557 36,000  Level Salt Lake Center
04:21PM 44.2064 -111.5522 299° West 486 559 36,000  Level Salt Lake Center
04:22PM 44.2669 -111.7142 298° West 488 562 36,000  Level Salt Lake Center
04:23PM 44.3381 -111.9003 298° West 485 558 36,000  Level Salt Lake Center
04:25PM 44.3975 -112.0594 298° West 482 555 36,000  Level Salt Lake Center
04:26PM 44.4683 -112.2458 298° West 483 556 36,000  Level Salt Lake Center
04:27PM 44.5281 -112.4053 298° West 483 556 36,000  Level Salt Lake Center
04:28PM 44.5867 -112.5656 297° West 481 554 36,000  Level Salt Lake Center
04:29PM 44.6553 -112.7525 297° West 482 555 36,000  Level Salt Lake Center
04:30PM 44.7142 -112.9147 297° West 484 557 36,000  Level Salt Lake Center
04:31PM 44.7825 -113.1050 297° West 488 562 36,000  Level Salt Lake Center
04:32PM 44.8425 -113.2675 298° West 489 563 36,000  Level Salt Lake Center
04:33PM 44.9100 -113.4581 297° West 487 560 36,000  Level Salt Lake Center
04:34PM 44.9697 -113.6236 297° West 490 564 36,000  Level Salt Lake Center
04:35PM 45.0383 -113.8164 297° West 492 566 36,000  Level Salt Lake Center
04:36PM 45.0958 -113.9811 296° West 489 563 36,000  Level Salt Lake Center
04:37PM 45.1564 -114.1447 298° West 489 563 36,000  Level Salt Lake Center
04:38PM 45.2208 -114.3383 295° West 487 560 36,000  Level Salt Lake Center
04:43PM 45.5340 -115.2640 295° West 488 562 36,000  Level FlightAware
04:44PM 45.5680 -115.3660 295° West 486 559 36,000  Level FlightAware
04:44PM 45.6020 -115.4670 296° West 484 557 36,000  Level FlightAware
04:45PM 45.6360 -115.5710 295° West 482 555 36,000  Level FlightAware
04:45PM 45.6660 -115.6620 295° West 481 554 36,000  Level FlightAware
04:46PM 45.7100 -115.7950 295° West 482 555 36,000  Level FlightAware
04:47PM 45.7460 -115.9050 295° West 480 552 36,000  Level FlightAware
04:47PM 45.7800 -116.0110 295° West 481 554 36,000  Level FlightAware
04:48PM 45.8130 -116.1130 295° West 481 554 36,000  Level FlightAware
04:49PM 45.8420 -116.2040 295° West 482 555 36,000  Level FlightAware
04:49PM 45.8770 -116.3110 295° West 481 554 36,000  Level FlightAware
04:50PM 45.9100 -116.4150 295° West 479 551 36,000  Level FlightAware
04:50PM 45.9430 -116.5180 295° West 476 548 36,000  Level FlightAware
04:51PM 45.9710 -116.6050 295° West 475 547 36,000  Level FlightAware
04:52PM 46.0050 -116.7150 294° West 473 544 36,000  Level FlightAware
04:52PM 46.0370 -116.8150 295° West 472 543 36,000  Level FlightAware
04:53PM 46.0690 -116.9190 294° West 474 545 36,000  Level FlightAware
04:53PM 46.0990 -117.0160 294° West 474 545 36,000  Level FlightAware
04:54PM 46.1380 -117.1380 295° West 474 545 36,000  Level FlightAware
04:55PM 46.1700 -117.2390 295° West 473 544 36,000  Level FlightAware
04:55PM 46.2000 -117.3320 295° West 473 544 36,000  Level FlightAware
04:56PM 46.2410 -117.4490 297° West 475 547 36,000  Level FlightAware
04:56PM 46.2740 -117.5510 295° West 473 544 36,000  Level FlightAware
04:57PM 46.3080 -117.6540 296° West 471 542 36,000  Level FlightAware
04:58PM 46.3380 -117.7450 296° West 470 541 36,000  Level FlightAware
04:58PM 46.3710 -117.8460 295° West 471 542 36,000  Level FlightAware
04:59PM 46.4050 -117.9510 295° West 471 542 36,000  Level FlightAware
04:59PM 46.4380 -118.0550 295° West 472 543 36,000  Level FlightAware
05:00PM 46.4680 -118.1470 295° West 472 543 36,000  Level FlightAware
05:01PM 46.5010 -118.2490 295° West 471 542 36,000  Level FlightAware
05:01PM 46.5350 -118.3570 295° West 468 539 36,000  Level FlightAware
05:02PM 46.5670 -118.4560 295° West 464 534 36,000  Level FlightAware
05:02PM 46.5970 -118.5520 294° West 466 536 36,000  Level FlightAware
05:03PM 46.6280 -118.6490 295° West 466 536 36,000  Level FlightAware
05:03PM 46.6600 -118.7510 295° West 468 539 36,000  Level FlightAware
05:04PM 46.6920 -118.8520 295° West 471 542 36,000  Level FlightAware
05:04PM 46.7014 -118.8830 294° West 471 542 36,000  Level FlightAware ADS-B
05:05PM 46.7290 -118.9710 295° West 470 541 36,000  Level FlightAware ADS-B
05:05PM 46.7610 -119.0750 294° West 471 542 36,000  Level FlightAware ADS-B
05:06PM 46.7891 -119.1650 295° West 467 537 36,000  Level FlightAware ADS-B
05:06PM 46.8168 -119.2550 294° West 469 540 36,000  Level FlightAware ADS-B
05:07PM 46.8440 -119.3440 294° West 469 540 36,000  Level FlightAware ADS-B
05:07PM 46.8709 -119.4310 294° West 469 540 36,000  Level FlightAware ADS-B
05:08PM 46.8972 -119.5180 294° West 467 537 36,000  Level FlightAware ADS-B
05:08PM 46.9240 -119.6060 294° West 467 537 36,000  Level FlightAware ADS-B
05:09PM 46.9504 -119.6930 294° West 467 537 36,000  Level FlightAware ADS-B
05:09PM 46.9783 -119.7850 294° West 465 535 36,000  Level FlightAware ADS-B
05:10PM 47.0044 -119.8720 294° West 463 533 36,000  Level FlightAware ADS-B
05:10PM 47.0302 -119.9580 294° West 463 533 36,000  Level FlightAware ADS-B
05:11PM 47.0573 -120.0490 294° West 464 534 36,000  Level FlightAware ADS-B
05:11PM 47.0836 -120.1370 294° West 465 535 36,000  Level FlightAware ADS-B
05:12PM 47.1093 -120.2240 293° West 464 534 36,000  Level FlightAware ADS-B
05:12PM 47.1358 -120.3130 294° West 464 534 36,000  Level FlightAware ADS-B
05:13PM 47.1611 -120.3990 293° West 463 533 36,000  Level FlightAware ADS-B
05:13PM 47.1867 -120.4860 293° West 464 534 36,000  Level FlightAware ADS-B
05:14PM 47.2120 -120.5730 293° West 465 535 36,000  Level FlightAware ADS-B
05:15PM 47.2375 -120.6610 293° West 465 535 36,000  Level FlightAware ADS-B
05:15PM 47.2630 -120.7480 293° West 466 536 36,000  Level FlightAware ADS-B
05:16PM 47.2883 -120.8360 293° West 467 537 36,000  Level FlightAware ADS-B
05:16PM 47.3139 -120.9250 293° West 467 537 36,000  Level FlightAware ADS-B
05:17PM 47.3390 -121.0120 293° West 467 537 36,000  Level FlightAware ADS-B
05:17PM 47.3644 -121.1010 293° West 470 541 36,000  Level FlightAware ADS-B
05:18PM 47.3900 -121.1910 293° West 472 543 36,000  Level FlightAware ADS-B
05:18PM 47.4160 -121.2820 293° West 470 541 36,000  Level FlightAware ADS-B
05:19PM 47.4412 -121.3710 293° West 467 537 36,000  Level FlightAware ADS-B
05:19PM 47.4658 -121.4580 293° West 464 534 36,000  Level FlightAware ADS-B
05:20PM 47.4905 -121.5460 293° West 465 535 36,000  Level FlightAware ADS-B
05:20PM 47.5151 -121.6340 293° West 466 536 36,000  Level FlightAware ADS-B
05:21PM 47.5399 -121.7230 292° West 468 539 36,000  Level FlightAware ADS-B
05:21PM 47.5648 -121.8130 292° West 471 542 36,000  Level FlightAware ADS-B
05:22PM 47.5896 -121.9020 292° West 471 542 36,000  Level FlightAware ADS-B
05:22PM 47.6144 -121.9920 292° West 470 541 36,000  Level FlightAware ADS-B
05:23PM 47.6388 -122.0810 292° West 468 539 36,000  Level FlightAware ADS-B
05:23PM 47.6635 -122.1710 292° West 470 541 36,000  Level FlightAware ADS-B
05:24PM 47.6879 -122.2610 292° West 472 543 36,000  Level FlightAware ADS-B
05:24PM 47.7124 -122.3510 292° West 471 542 36,000  Level FlightAware ADS-B
05:25PM 47.7370 -122.4420 292° West 471 542 36,000  Level FlightAware ADS-B
05:25PM 47.7622 -122.5350 292° West 471 542 36,000  Level FlightAware ADS-B
05:26PM 47.7869 -122.6280 292° West 471 542 36,000  Level FlightAware ADS-B
05:26PM 47.8111 -122.7180 292° West 472 543 36,000  Level FlightAware ADS-B
05:27PM 47.8371 -122.8160 292° West 473 544 36,000  Level FlightAware ADS-B
05:27PM 47.8613 -122.9070 292° West 472 543 36,000  Level FlightAware ADS-B
05:28PM 47.8852 -122.9970 292° West 471 542 36,000  Level FlightAware ADS-B
05:28PM 47.9090 -123.0880 291° West 471 542 36,000  Level FlightAware ADS-B
05:29PM 47.9366 -123.1930 291° West 472 543 36,000  Level FlightAware ADS-B
05:30PM 47.9768 -123.3480 291° West 472 543 36,000  Level FlightAware ADS-B
05:30PM 48.0005 -123.4390 291° West 472 543 36,000  Level FlightAware ADS-B
05:31PM 48.0240 -123.5300 291° West 470 541 36,000  Level FlightAware ADS-B
05:31PM 48.0475 -123.6210 291° West 472 543 36,000  Level FlightAware ADS-B
05:32PM 48.0852 -123.7690 291° West 471 542 36,000  Level FlightAware ADS-B
05:32PM 48.1100 -123.8660 291° West 472 543 36,000  Level FlightAware ADS-B
05:33PM 48.1332 -123.9580 291° West 472 543 36,000  Level FlightAware ADS-B
05:33PM 48.1565 -124.0500 291° West 473 544 36,000  Level FlightAware ADS-B
05:34PM 48.1823 -124.1530 291° West 474 545 36,000  Level FlightAware ADS-B
05:34PM 48.2055 -124.2460 291° West 477 549 36,000  Level FlightAware ADS-B
05:35PM 48.2288 -124.3390 291° West 479 551 36,000  Level FlightAware ADS-B
05:35PM 48.2523 -124.4340 290° West 480 552 36,000  Level FlightAware ADS-B
05:36PM 48.2840 -124.5610 291° West 480 552 36,000  Level FlightAware
05:36PM 48.2968 -124.6140 290° West 481 554 36,000  Level FlightAware ADS-B
05:37PM 48.3214 -124.7200 289° West 479 551 36,000  Level FlightAware ADS-B
05:38PM 48.3457 -124.8320 288° West 479 551 36,000  Level FlightAware ADS-B
05:38PM 48.3664 -124.9270 288° West 478 550 36,000  Level FlightAware ADS-B
05:39PM 48.3875 -125.0230 288° West 476 548 36,000  Level FlightAware ADS-B
05:39PM 48.4070 -125.1130 288° West 474 545 36,000  Level FlightAware
05:40PM 48.4330 -125.2300 289° West 474 545 36,000  Level FlightAware
05:40PM 48.4560 -125.3390 288° West 473 544 36,000  Level FlightAware
05:41PM 48.4770 -125.4340 288° West 473 544 36,000  Level FlightAware
05:41PM 48.5030 -125.5550 288° West 471 542 36,000  Level FlightAware
05:42PM 48.5270 -125.6680 288° West 468 539 36,000  Level FlightAware
05:43PM 48.5500 -125.7780 288° West 468 539 36,000  Level FlightAware
05:43PM 48.5720 -125.8790 288° West 467 537 36,000  Level FlightAware
05:44PM 48.5950 -125.9880 288° West 467 537 36,000  Level FlightAware
05:45PM 48.6260 -126.1400 287° West 469 540 36,000  Level FlightAware
05:45PM 48.6490 -126.2510 287° West 470 541 36,000  Level FlightAware
05:46PM 48.6660 -126.3300 288° West 469 540 36,000  Level FlightAware
05:46PM 48.6900 -126.4510 287° West 468 539 36,000  Level FlightAware
05:47PM 48.7150 -126.5740 287° West 466 536 36,000  Level FlightAware
05:48PM 48.7410 -126.7020 287° West 467 537 36,000  Level FlightAware
05:48PM 48.7630 -126.8100 287° West 467 537 36,000  Level FlightAware
05:49PM 48.7840 -126.9160 287° West 463 533 36,000  Level FlightAware
05:49PM 48.8060 -127.0240 287° West 465 535 36,000  Level FlightAware
05:50PM 48.8300 -127.1450 287° West 465 535 36,000  Level FlightAware
05:51PM 48.8530 -127.2640 286° West 465 535 36,000  Level FlightAware
05:51PM 48.8780 -127.3920 287° West 462 532 36,000  Level FlightAware
05:52PM 48.8960 -127.4810 287° West 462 532 36,000  Level FlightAware
05:53PM 48.9230 -127.6240 286° West 462 532 36,000  Level FlightAware
05:53PM 48.9450 -127.7400 286° West 463 533 36,000  Level FlightAware
05:54PM 48.9750 -127.8960 286° West 465 535 36,000  Level FlightAware
05:55PM 48.9970 -128.0130 286° West 463 533 36,000  Level FlightAware
05:55PM 49.0180 -128.1220 286° West 464 534 36,000  Level FlightAware
05:56PM 49.0380 -128.2260 286° West 464 534 36,000  Level FlightAware
05:56PM 49.0580 -128.3220 288° West 464 534 36,000  Level FlightAware
05:57PM 49.0770 -128.4180 287° West 464 534 36,000  Level FlightAware
05:58PM 49.0960 -128.5140 287° West 464 534 36,000  Level FlightAware
05:58PM 49.1150 -128.6090 287° West 464 534 36,000  Level FlightAware
05:59PM 49.1340 -128.7050 287° West 464 534 36,000  Level FlightAware
05:59PM 49.1540 -128.8010 288° West 464 534 36,000  Level FlightAware
06:00PM 49.1720 -128.8920 287° West 464 534 36,000  Level FlightAware
06:01PM 49.1910 -128.9910 286° West 464 534 36,000  Level FlightAware
06:01PM 49.2110 -129.0870 288° West 464 534 36,000  Level FlightAware
06:02PM 49.2300 -129.1830 287° West 464 534 36,000  Level FlightAware
06:02PM 49.2490 -129.2800 287° West 464 534 36,000  Level FlightAware
06:03PM 49.2680 -129.3730 287° West 464 534 36,000  Level FlightAware
06:04PM 49.2870 -129.4690 287° West 464 534 36,000  Level FlightAware
06:04PM 49.3070 -129.5680 287° West 464 534 36,000  Level FlightAware
06:05PM 49.3260 -129.6650 287° West 464 534 36,000  Level FlightAware
06:06PM 49.3500 -130.1000 287° West 460 529 36,000  Level Vancouver Center
06:07PM 49.3833 -130.3167 283° West 460 529 36,000 240 Level Vancouver Center
06:08PM 49.4333 -130.4833 295° West 460 529 36,500 780 Climbing Vancouver Center
06:09PM 49.4667 -130.6833 284° West 460 529 37,600 720 Climbing Vancouver Center
06:10PM 49.5000 -130.8500 287° West 450 518 38,000 180 Climbing Vancouver Center
06:11PM 49.5500 -131.0667 290° West 450 518 38,000  Level Vancouver Center
06:12PM 49.5667 -131.2167 280° West 450 518 38,000  Level Vancouver Center
06:13PM 49.6000 -131.4000 286° West 450 518 38,000  Level Vancouver Center
06:14PM 49.6500 -131.6000 291° West 450 518 38,000  Level Vancouver Center
06:15PM 49.6833 -131.7833 286° West 450 518 38,000  Level Vancouver Center
06:16PM 49.7167 -131.9667 286° West 460 529 38,000  Level Vancouver Center
06:18PM 49.7792 -132.2893 287° West  Level FlightAware Approximate
06:24PM 50.0000 -133.4000 273° West 448 516 38,000  Level Oakland Oceanic (ODAPS)
06:25PM 50.0066 -133.6233 273° West  Level FlightAware Approximate
06:26PM 50.0117 -133.8243 272° West  Level FlightAware Approximate
06:27PM 50.0165 -134.0253 272° West  Level FlightAware Approximate
06:27PM 50.0167 -134.1333 272° West 451 519 38,000  Level Oakland Oceanic (ODAPS)
06:28PM 50.0209 -134.2264 272° West  Level FlightAware Approximate
06:29PM 50.0250 -134.4275 272° West  Level FlightAware Approximate
06:30PM 50.0272 -134.5639 272° West 448 516 38,000  Level FlightAware Transoceanic
06:31PM 50.0306 -134.7580 271° West 448 516 38,000  Level FlightAware Transoceanic
06:32PM 50.0337 -134.9521 271° West 448 516 38,000  Level FlightAware Transoceanic
06:33PM 50.0364 -135.1463 271° West 448 516 38,000  Level FlightAware Transoceanic
06:34PM 50.0370 -135.3064 271° West 451 519 38,000  Level FlightAware Transoceanic
06:35PM 50.0392 -135.5020 271° West 451 519 38,000  Level FlightAware Transoceanic
06:36PM 50.0411 -135.6976 271° West 451 519 38,000  Level FlightAware Transoceanic
06:36PM 50.0500 -135.7333 271° West 459 528 38,000  Level Oakland Oceanic (ODAPS)
06:37PM 50.0427 -135.8932 271° West 451 519 38,000  Level FlightAware Transoceanic
06:38PM 50.0440 -136.0889 270° West 451 519 38,000  Level FlightAware Transoceanic
06:39PM 50.0449 -136.2845 270° West 451 519 38,000  Level FlightAware Transoceanic
06:40PM 50.0455 -136.4802 270° West 451 519 38,000  Level FlightAware Transoceanic
06:41PM 50.0458 -136.6759 270° West 451 519 38,000  Level FlightAware Transoceanic
06:42PM 50.0519 -136.8976 270° West 459 528 38,000  Level FlightAware Transoceanic
06:43PM 50.0511 -137.0917 270° West 459 528 38,000  Level FlightAware Transoceanic
06:44PM 50.0499 -137.2857 269° West 459 528 38,000  Level FlightAware Transoceanic
06:45PM 50.0485 -137.4798 269° West 459 528 38,000  Level FlightAware Transoceanic
06:46PM 50.0467 -137.6738 269° West 459 528 38,000  Level FlightAware Transoceanic
06:47PM 50.0446 -137.8678 269° West 459 528 38,000  Level FlightAware Transoceanic
06:48PM 50.0421 -138.0618 269° West 459 528 38,000  Level FlightAware Transoceanic
06:49PM 50.0394 -138.2557 269° West 459 528 38,000  Level FlightAware Transoceanic
06:50PM 50.0363 -138.4497 269° West 459 528 38,000  Level FlightAware Transoceanic
06:50PM 50.0333 -138.5000 269° West 476 548 38,000  Level Oakland Oceanic (ODAPS)
06:51PM 50.0329 -138.6436 268° West 459 528 38,000  Level FlightAware Transoceanic
06:52PM 50.0291 -138.8374 268° West 459 528 38,000  Level FlightAware Transoceanic
06:53PM 50.0251 -139.0313 268° West 459 528 38,000  Level FlightAware Transoceanic
06:54PM 50.0207 -139.2251 268° West 459 528 38,000  Level FlightAware Transoceanic
06:55PM 50.0160 -139.4189 268° West 459 528 38,000  Level FlightAware Transoceanic
06:56PM 50.0060 -139.7858 268° West 476 548 38,000  Level FlightAware Transoceanic
06:57PM 50.0000 -140.0000 274° West 476 548 38,000  Level FlightAware Transoceanic
06:58PM 50.0086 -140.2035 274° West 476 548 38,000  Level FlightAware Transoceanic
06:58PM 50.0000 -140.0000 274° West 485 558 38,000  Level Oakland Oceanic (ODAPS)
06:59PM 50.0168 -140.4071 274° West 476 548 38,000  Level FlightAware Transoceanic
07:00PM 50.0247 -140.6107 273° West 476 548 38,000  Level FlightAware Transoceanic
07:01PM 50.0322 -140.8145 273° West 476 548 38,000  Level FlightAware Transoceanic
07:02PM 50.0394 -141.0182 273° West 476 548 38,000  Level FlightAware Transoceanic
07:03PM 50.0462 -141.2221 273° West 476 548 38,000  Level FlightAware Transoceanic
07:04PM 50.0535 -141.4557 273° West 485 558 38,000  Level FlightAware Transoceanic
07:04PM 50.0500 -141.3667 273° West 493 567 38,000  Level Oakland Oceanic (ODAPS)
07:05PM 50.0597 -141.6639 273° West 485 558 38,000  Level FlightAware Transoceanic
07:06PM 50.0655 -141.8721 272° West 485 558 38,000  Level FlightAware Transoceanic
07:07PM 50.0709 -142.0805 272° West 485 558 38,000  Level FlightAware Transoceanic
07:08PM 50.0760 -142.2888 272° West 485 558 38,000  Level FlightAware Transoceanic
07:09PM 50.0806 -142.4972 272° West 485 558 38,000  Level FlightAware Transoceanic
07:10PM 50.0827 -142.6295 272° West 493 567 38,000  Level FlightAware Transoceanic
07:11PM 50.0868 -142.8401 272° West 493 567 38,000  Level FlightAware Transoceanic
07:12PM 50.0906 -143.0508 272° West 493 567 38,000  Level FlightAware Transoceanic
07:13PM 50.0939 -143.2615 271° West 493 567 38,000  Level FlightAware Transoceanic
07:14PM 50.0969 -143.4722 271° West 493 567 38,000  Level FlightAware Transoceanic
07:15PM 50.0995 -143.6829 271° West 493 567 38,000  Level FlightAware Transoceanic
07:16PM 50.1017 -143.8937 271° West 493 567 38,000  Level FlightAware Transoceanic
07:17PM 50.1035 -144.1045 271° West 493 567 38,000  Level FlightAware Transoceanic
07:18PM 50.1050 -144.3153 271° West 493 567 38,000  Level FlightAware Transoceanic
07:18PM 50.1000 -144.3333 271° West 500 575 38,000  Level Oakland Oceanic (ODAPS)
07:19PM 50.1061 -144.5261 270° West 493 567 38,000  Level FlightAware Transoceanic
07:20PM 50.1068 -144.7369 270° West 493 567 38,000  Level FlightAware Transoceanic
07:21PM 50.1071 -144.9477 270° West 493 567 38,000  Level FlightAware Transoceanic
07:22PM 50.1070 -145.1586 270° West 493 567 38,000  Level FlightAware Transoceanic
07:23PM 50.1065 -145.3694 270° West 493 567 38,000  Level FlightAware Transoceanic
07:24PM 50.1014 -145.6426 270° West 500 575 38,000  Level FlightAware Transoceanic
07:25PM 50.1002 -145.8608 269° West 500 575 38,000  Level FlightAware Transoceanic
07:26PM 50.0986 -146.0790 269° West 500 575 38,000  Level FlightAware Transoceanic
07:27PM 50.0966 -146.2972 269° West 500 575 38,000  Level FlightAware Transoceanic
07:28PM 50.0942 -146.5153 269° West 500 575 38,000  Level FlightAware Transoceanic
07:29PM 50.0914 -146.7334 269° West 500 575 38,000  Level FlightAware Transoceanic
07:30PM 50.0881 -146.9516 269° West 500 575 38,000  Level FlightAware Transoceanic
07:31PM 50.0845 -147.1696 268° West 500 575 38,000  Level FlightAware Transoceanic
07:32PM 50.0804 -147.3877 268° West 500 575 38,000  Level FlightAware Transoceanic
07:32PM 50.0833 -147.3667 268° West 507 583 38,000  Level Oakland Oceanic (ODAPS)
07:33PM 50.0760 -147.6057 268° West 500 575 38,000  Level FlightAware Transoceanic
07:34PM 50.0711 -147.8236 268° West 500 575 38,000  Level FlightAware Transoceanic
07:35PM 50.0658 -148.0415 268° West 500 575 38,000  Level FlightAware Transoceanic
07:36PM 50.0602 -148.2594 268° West 500 575 38,000  Level FlightAware Transoceanic
07:37PM 50.0541 -148.4772 267° West 500 575 38,000  Level FlightAware Transoceanic
07:38PM 50.0476 -148.6949 267° West 500 575 38,000  Level FlightAware Transoceanic
07:39PM 50.0420 -148.9039 267° West 507 583 38,000  Level FlightAware Transoceanic
07:40PM 50.0344 -149.1233 267° West 507 583 38,000  Level FlightAware Transoceanic
07:41PM 50.0264 -149.3426 267° West 507 583 38,000  Level FlightAware Transoceanic
07:42PM 50.0180 -149.5618 267° West 507 583 38,000  Level FlightAware Transoceanic
07:43PM 50.0092 -149.7809 266° West 507 583 38,000  Level FlightAware Transoceanic
07:44PM 50.0000 -150.0000 265° West 507 583 38,000  Level FlightAware Transoceanic
07:45PM 49.9881 -150.2120 265° West 507 583 38,000  Level FlightAware Transoceanic
07:46PM 49.9757 -150.4238 265° West 507 583 38,000  Level FlightAware Transoceanic
07:47PM 49.9630 -150.6356 265° West 507 583 38,000  Level FlightAware Transoceanic
07:48PM 49.9499 -150.8472 264° West 507 583 38,000  Level FlightAware Transoceanic
07:49PM 49.9365 -151.0587 264° West 507 583 38,000  Level FlightAware Transoceanic
07:49PM 49.9833 -150.4000 265° West 511 588 38,000  Level Oakland Oceanic (ODAPS)
07:50PM 49.9226 -151.2701 264° West 507 583 38,000  Level FlightAware Transoceanic
07:51PM 49.9084 -151.4814 264° West 507 583 38,000  Level FlightAware Transoceanic
07:52PM 49.8937 -151.6926 264° West 507 583 38,000  Level FlightAware Transoceanic
07:53PM 49.8787 -151.9036 264° West 507 583 38,000  Level FlightAware Transoceanic
07:54PM 49.8633 -152.1145 263° West 507 583 38,000  Level FlightAware Transoceanic
07:55PM 49.8473 -152.3928 263° West 511 588 38,000  Level FlightAware Transoceanic
07:56PM 49.8301 -152.6134 263° West 511 588 38,000  Level FlightAware Transoceanic
07:57PM 49.8125 -152.8340 263° West 511 588 38,000  Level FlightAware Transoceanic
07:58PM 49.7944 -153.0544 263° West 511 588 38,000  Level FlightAware Transoceanic
07:59PM 49.7760 -153.2746 263° West 511 588 38,000  Level FlightAware Transoceanic
07:59PM 49.7667 -153.4167 262° West 503 579 38,000  Level Oakland Oceanic (ODAPS)
08:00PM 49.7571 -153.4946 262° West 511 588 38,000  Level FlightAware Transoceanic
08:01PM 49.7378 -153.7144 262° West 511 588 38,000  Level FlightAware Transoceanic
08:02PM 49.7180 -153.9341 262° West 511 588 38,000  Level FlightAware Transoceanic
08:03PM 49.6979 -154.1536 262° West 511 588 38,000  Level FlightAware Transoceanic
08:04PM 49.6774 -154.3730 262° West 511 588 38,000  Level FlightAware Transoceanic
08:05PM 49.6516 -154.6660 261° West 503 579 38,000  Level FlightAware Transoceanic
08:06PM 49.6311 -154.8736 261° West 503 579 38,000  Level FlightAware Transoceanic
08:07PM 49.6102 -155.0811 261° West 503 579 38,000  Level FlightAware Transoceanic
08:08PM 49.5890 -155.2884 261° West 503 579 38,000  Level FlightAware Transoceanic
08:09PM 49.5674 -155.4955 261° West 503 579 38,000  Level FlightAware Transoceanic
08:10PM 49.5454 -155.7024 261° West 503 579 38,000  Level FlightAware Transoceanic
08:11PM 49.5231 -155.9091 260° West 503 579 38,000  Level FlightAware Transoceanic
08:12PM 49.5004 -156.1156 260° West 503 579 38,000  Level FlightAware Transoceanic
08:13PM 49.4773 -156.3219 260° West 503 579 38,000  Level FlightAware Transoceanic
08:14PM 49.4539 -156.5281 260° West 503 579 38,000  Level FlightAware Transoceanic
08:15PM 49.4301 -156.7340 260° West 503 579 38,000  Level FlightAware Transoceanic
08:16PM 49.4059 -156.9398 260° West 503 579 38,000  Level FlightAware Transoceanic
08:17PM 49.3814 -157.1453 260° West 503 579 38,000  Level FlightAware Transoceanic
08:18PM 49.3565 -157.3507 259° West 503 579 38,000  Level FlightAware Transoceanic
08:19PM 49.3312 -157.5558 259° West 503 579 38,000  Level FlightAware Transoceanic
08:19PM 49.3833 -157.1167 260° West 498 573 38,000  Level Oakland Oceanic (ODAPS)
08:20PM 49.3056 -157.7607 259° West 503 579 38,000  Level FlightAware Transoceanic
08:21PM 49.2796 -157.9654 259° West 503 579 38,000  Level FlightAware Transoceanic
08:22PM 49.2533 -158.1699 259° West 503 579 38,000  Level FlightAware Transoceanic
08:23PM 49.2266 -158.3741 259° West 503 579 38,000  Level FlightAware Transoceanic
08:24PM 49.1995 -158.5782 258° West 503 579 38,000  Level FlightAware Transoceanic
08:25PM 49.1731 -158.7698 258° West 498 573 38,000  Level FlightAware Transoceanic
08:26PM 49.1451 -158.9754 258° West 498 573 38,000  Level FlightAware Transoceanic
08:27PM 49.1168 -159.1808 258° West 498 573 38,000  Level FlightAware Transoceanic
08:28PM 49.0882 -159.3860 258° West 498 573 38,000  Level FlightAware Transoceanic
08:28PM 49.1167 -159.2167 257° West 502 578 38,000  Level Oakland Oceanic (ODAPS)
08:29PM 49.0591 -159.5909 258° West 498 573 38,000  Level FlightAware Transoceanic
08:30PM 49.0298 -159.7956 258° West 498 573 38,000  Level FlightAware Transoceanic
08:31PM 49.0000 -160.0000 265° West 498 573 38,000  Level FlightAware Transoceanic
08:31PM 49.0000 -160.0000 265° West 506 582 38,000  Level Oakland Oceanic (ODAPS)
08:32PM 48.9883 -160.2075 265° West 498 573 38,000  Level FlightAware Transoceanic
08:33PM 48.9763 -160.4149 265° West 498 573 38,000  Level FlightAware Transoceanic
08:34PM 48.9639 -160.6223 265° West 502 578 38,000  Level FlightAware Transoceanic
08:35PM 48.9512 -160.8295 265° West 502 578 38,000  Level FlightAware Transoceanic
08:36PM 48.9380 -161.0366 264° West 502 578 38,000  Level FlightAware Transoceanic
08:37PM 48.9228 -161.2694 264° West 506 582 38,000  Level FlightAware Transoceanic
08:38PM 48.9086 -161.4806 264° West 506 582 38,000  Level FlightAware Transoceanic
08:39PM 48.8940 -161.6917 264° West 506 582 38,000  Level FlightAware Transoceanic
08:40PM 48.8790 -161.9026 264° West 506 582 38,000  Level FlightAware Transoceanic
08:41PM 48.8637 -162.1134 264° West 506 582 38,000  Level FlightAware Transoceanic
08:41PM 48.8667 -162.1833 263° West 520 598 38,000  Level Oakland Oceanic (ODAPS)
08:42PM 48.8479 -162.3241 263° West 506 582 38,000  Level FlightAware Transoceanic
08:43PM 48.8318 -162.5346 263° West 506 582 38,000  Level FlightAware Transoceanic
08:44PM 48.8152 -162.7450 263° West 506 582 38,000  Level FlightAware Transoceanic
08:45PM 48.7983 -162.9552 263° West 506 582 38,000  Level FlightAware Transoceanic
08:46PM 48.7811 -163.1654 263° West 506 582 38,000  Level FlightAware Transoceanic
08:47PM 48.7634 -163.3753 263° West 506 582 38,000  Level FlightAware Transoceanic
08:48PM 48.7436 -163.6815 262° West 520 598 38,000  Level FlightAware Transoceanic
08:49PM 48.7244 -163.8949 262° West 520 598 38,000  Level FlightAware Transoceanic
08:50PM 48.7049 -164.1081 262° West 520 598 38,000  Level FlightAware Transoceanic
08:51PM 48.6849 -164.3212 262° West 520 598 38,000  Level FlightAware Transoceanic
08:52PM 48.6646 -164.5341 262° West 520 598 38,000  Level FlightAware Transoceanic
08:53PM 48.6438 -164.7468 262° West 520 598 38,000  Level FlightAware Transoceanic
08:54PM 48.6227 -164.9593 261° West 520 598 38,000  Level FlightAware Transoceanic
08:55PM 48.6012 -165.1717 261° West 520 598 38,000  Level FlightAware Transoceanic
08:56PM 48.5793 -165.3839 261° West 520 598 38,000  Level FlightAware Transoceanic
08:57PM 48.5570 -165.5959 261° West 520 598 38,000  Level FlightAware Transoceanic
08:57PM 48.6000 -165.1667 261° West 519 597 38,000  Level Oakland Oceanic (ODAPS)
08:58PM 48.5343 -165.8077 261° West 520 598 38,000  Level FlightAware Transoceanic
08:59PM 48.5112 -166.0193 261° West 520 598 38,000  Level FlightAware Transoceanic
09:00PM 48.4878 -166.2307 260° West 520 598 38,000  Level FlightAware Transoceanic
09:01PM 48.4639 -166.4420 260° West 520 598 38,000  Level FlightAware Transoceanic
09:02PM 48.4397 -166.6530 260° West 520 598 38,000  Level FlightAware Transoceanic
09:03PM 48.4143 -166.8605 260° West 519 597 38,000  Level FlightAware Transoceanic
09:04PM 48.3894 -167.0714 260° West 519 597 38,000  Level FlightAware Transoceanic
09:05PM 48.3640 -167.2820 260° West 519 597 38,000  Level FlightAware Transoceanic
09:06PM 48.3383 -167.4924 259° West 519 597 38,000  Level FlightAware Transoceanic
09:07PM 48.3122 -167.7026 259° West 519 597 38,000  Level FlightAware Transoceanic
09:08PM 48.2857 -167.9126 259° West 519 597 38,000  Level FlightAware Transoceanic
09:09PM 48.2589 -168.1224 259° West 519 597 38,000 540 Level FlightAware Transoceanic
09:09PM 48.2667 -168.1000 259° West 513 590 39,000  Climbing Oakland Oceanic (ODAPS)
09:10PM 48.2316 -168.3319 259° West 519 597 38,000 -840 Descending FlightAware Transoceanic
09:11PM 48.2040 -168.5412 259° West 519 597 38,000  Level FlightAware Transoceanic
09:12PM 48.1760 -168.7503 259° West 519 597 38,000  Level FlightAware Transoceanic
09:13PM 48.1476 -168.9592 258° West 519 597 38,000  Level FlightAware Transoceanic
09:14PM 48.1188 -169.1678 258° West 519 597 38,000  Level FlightAware Transoceanic
09:15PM 48.0897 -169.3762 258° West 519 597 38,000 480 Level FlightAware Transoceanic
09:16PM 48.0620 -169.5795 258° West 513 590 39,000 480 Climbing FlightAware Transoceanic
09:17PM 48.0312 -169.7899 258° West 513 590 39,000  Level FlightAware Transoceanic
09:18PM 48.0000 -170.0000 265° West 513 590 39,000  Level FlightAware Transoceanic
09:18PM 48.0000 -170.0000 265° West 501 577 39,000  Level Oakland Oceanic (ODAPS)
09:19PM 47.9884 -170.2074 265° West 513 590 39,000  Level FlightAware Transoceanic
09:20PM 47.9764 -170.4147 265° West 513 590 39,000  Level FlightAware Transoceanic
09:21PM 47.9640 -170.6219 265° West 513 590 39,000  Level FlightAware Transoceanic
09:22PM 47.9513 -170.8290 265° West 513 590 39,000  Level FlightAware Transoceanic
09:23PM 47.9382 -171.0360 265° West 513 590 39,000  Level FlightAware Transoceanic
09:23PM 47.9333 -171.0000 265° West 501 577 39,000  Level Oakland Oceanic (ODAPS)
09:24PM 47.9247 -171.2429 264° West 501 577 39,000  Level FlightAware Transoceanic
09:25PM 47.9109 -171.4497 264° West 501 577 39,000  Level FlightAware Transoceanic
09:26PM 47.8966 -171.6564 264° West 501 577 39,000  Level FlightAware Transoceanic
09:27PM 47.8820 -171.8629 264° West 501 577 39,000  Level FlightAware Transoceanic
09:28PM 47.8671 -172.0693 264° West 501 577 39,000  Level FlightAware Transoceanic
09:29PM 47.8517 -172.2757 264° West 501 577 39,000  Level FlightAware Transoceanic
09:30PM 47.8323 -172.4515 264° West 501 577 39,000  Level FlightAware Transoceanic
09:31PM 47.8164 -172.6584 263° West 501 577 39,000  Level FlightAware Transoceanic
09:32PM 47.8001 -172.8652 263° West 501 577 39,000  Level FlightAware Transoceanic
09:33PM 47.7835 -173.0718 263° West 501 577 39,000  Level FlightAware Transoceanic
09:34PM 47.7664 -173.2783 263° West 501 577 39,000  Level FlightAware Transoceanic
09:35PM 47.7490 -173.4846 263° West 501 577 39,000  Level FlightAware Transoceanic
09:36PM 47.7313 -173.6908 263° West 501 577 39,000  Level FlightAware Transoceanic
09:37PM 47.7131 -173.8969 262° West 501 577 39,000  Level FlightAware Transoceanic
09:38PM 47.6946 -174.1028 262° West 501 577 39,000  Level FlightAware Transoceanic
09:39PM 47.6757 -174.3086 262° West 501 577 39,000  Level FlightAware Transoceanic
09:40PM 47.6565 -174.5142 262° West 501 577 39,000  Level FlightAware Transoceanic
09:41PM 47.6369 -174.7197 262° West 501 577 39,000  Level FlightAware Transoceanic
09:42PM 47.6169 -174.9250 262° West 501 577 39,000  Level FlightAware Transoceanic
09:42PM 47.6167 -174.9000 262° West 494 568 39,000  Level Oakland Oceanic (ODAPS)
09:43PM 47.5965 -175.1302 262° West 501 577 39,000  Level FlightAware Transoceanic
09:44PM 47.5758 -175.3352 261° West 501 577 39,000  Level FlightAware Transoceanic
09:45PM 47.5548 -175.5400 261° West 501 577 39,000  Level FlightAware Transoceanic
09:46PM 47.5333 -175.7447 261° West 501 577 39,000  Level FlightAware Transoceanic
09:47PM 47.5115 -175.9492 261° West 501 577 39,000  Level FlightAware Transoceanic
09:48PM 47.4894 -176.1535 261° West 501 577 39,000  Level FlightAware Transoceanic
09:49PM 47.4669 -176.3397 261° West 494 568 39,000  Level FlightAware Transoceanic
09:50PM 47.4440 -176.5447 261° West 494 568 39,000  Level FlightAware Transoceanic
09:51PM 47.4208 -176.7495 260° West 494 568 39,000  Level FlightAware Transoceanic
09:52PM 47.3972 -176.9541 260° West 494 568 39,000  Level FlightAware Transoceanic
09:52PM 47.4500 -176.5833 260° West 487 560 39,000  Level Oakland Oceanic (ODAPS)
09:53PM 47.3732 -177.1586 260° West 494 568 39,000  Level FlightAware Transoceanic
09:54PM 47.3489 -177.3628 260° West 494 568 39,000  Level FlightAware Transoceanic
09:55PM 47.3242 -177.5669 260° West 494 568 39,000  Level FlightAware Transoceanic
09:56PM 47.2992 -177.7708 260° West 494 568 39,000  Level FlightAware Transoceanic
09:57PM 47.2738 -177.9744 260° West 494 568 39,000  Level FlightAware Transoceanic
09:58PM 47.2626 -178.1090 259° West 487 560 39,000  Level FlightAware Transoceanic
09:59PM 47.2377 -178.2989 259° West 487 560 39,000  Level FlightAware Transoceanic
10:00PM 47.2125 -178.4887 259° West 487 560 39,000  Level FlightAware Transoceanic
10:01PM 47.1871 -178.6782 259° West 487 560 39,000  Level FlightAware Transoceanic
10:02PM 47.1613 -178.8676 259° West 487 560 39,000  Level FlightAware Transoceanic
10:03PM 47.1352 -179.0568 258° West 487 560 39,000  Level FlightAware Transoceanic
10:04PM 47.1087 -179.2458 258° West 487 560 39,000  Level FlightAware Transoceanic
10:05PM 47.0820 -179.4347 258° West 487 560 39,000  Level FlightAware Transoceanic
10:06PM 47.0550 -179.6233 258° West 487 560 39,000  Level FlightAware Transoceanic
10:07PM 47.0276 -179.8118 258° West 487 560 39,000  Level FlightAware Transoceanic
10:08PM 47.0000 -180.0000 258° West 487 560 39,000  Level FlightAware Transoceanic
10:08PM 47.1000 -179.2833 259° West 487 560 39,000  Level Oakland Oceanic (ODAPS)
10:09PM 46.9716 179.8121 257° West 487 560 39,000  Level FlightAware Transoceanic
10:10PM 46.9429 179.6243 257° West 487 560 39,000  Level FlightAware Transoceanic
10:10PM 47.0000 180.0000 258° West 490 564 39,000  Level Oakland Oceanic (ODAPS)
10:11PM 46.9139 179.4367 257° West 487 560 39,000  Level FlightAware Transoceanic
10:12PM 46.8846 179.2494 257° West 487 560 39,000  Level FlightAware Transoceanic
10:13PM 46.8549 179.0623 257° West 487 560 39,000  Level FlightAware Transoceanic
10:14PM 46.8250 178.8753 257° West 487 560 39,000  Level FlightAware Transoceanic
10:15PM 46.7948 178.6886 257° West 487 560 39,000  Level FlightAware Transoceanic
10:16PM 46.7550 178.4458 256° West 490 564 39,000  Level FlightAware Transoceanic
10:17PM 46.7229 178.2525 256° West 490 564 39,000  Level FlightAware Transoceanic
10:18PM 46.6904 178.0595 256° West 490 564 39,000  Level FlightAware Transoceanic
10:19PM 46.6577 177.8667 256° West 490 564 39,000  Level FlightAware Transoceanic
10:20PM 46.6246 177.6742 256° West 490 564 39,000  Level FlightAware Transoceanic
10:21PM 46.5912 177.4818 256° West 490 564 39,000  Level FlightAware Transoceanic
10:22PM 46.5575 177.2897 256° West 490 564 39,000  Level FlightAware Transoceanic
10:23PM 46.5234 177.0979 255° West 490 564 39,000  Level FlightAware Transoceanic
10:24PM 46.4891 176.9063 255° West 490 564 39,000  Level FlightAware Transoceanic
10:25PM 46.4544 176.7149 255° West 490 564 39,000  Level FlightAware Transoceanic
10:26PM 46.4194 176.5238 255° West 490 564 39,000  Level FlightAware Transoceanic
10:27PM 46.3841 176.3329 255° West 490 564 39,000  Level FlightAware Transoceanic
10:28PM 46.3484 176.1423 255° West 490 564 39,000  Level FlightAware Transoceanic
10:28PM 46.4500 176.6500 255° West 490 564 39,000  Level Oakland Oceanic (ODAPS)
10:29PM 46.3125 175.9519 255° West 490 564 39,000  Level FlightAware Transoceanic
10:30PM 46.2762 175.7618 254° West 490 564 39,000  Level FlightAware Transoceanic
10:31PM 46.2396 175.5719 254° West 490 564 39,000  Level FlightAware Transoceanic
10:32PM 46.2027 175.3823 254° West 490 564 39,000  Level FlightAware Transoceanic
10:33PM 46.1655 175.1929 254° West 490 564 39,000  Level FlightAware Transoceanic
10:33PM 46.2167 175.4500 254° West 493 567 39,000  Level Oakland Oceanic (ODAPS)
10:34PM 46.1280 175.0038 254° West 490 564 39,000  Level FlightAware Transoceanic
10:35PM 46.1143 174.9074 254° West 490 564 39,000  Level FlightAware Transoceanic
10:36PM 46.0754 174.7152 254° West 490 564 39,000  Level FlightAware Transoceanic
10:37PM 46.0361 174.5231 254° West 490 564 39,000  Level FlightAware Transoceanic
10:38PM 45.9966 174.3314 253° West 490 564 39,000  Level FlightAware Transoceanic
10:39PM 45.9469 174.1131 253° West 493 567 39,000  Level FlightAware Transoceanic
10:40PM 45.9071 173.9232 253° West 493 567 39,000  Level FlightAware Transoceanic
10:41PM 45.8670 173.7335 253° West 493 567 39,000  Level FlightAware Transoceanic
10:42PM 45.8265 173.5441 253° West 493 567 39,000  Level FlightAware Transoceanic
10:43PM 45.7858 173.3551 253° West 493 567 39,000  Level FlightAware Transoceanic
10:44PM 45.7447 173.1662 253° West 493 567 39,000  Level FlightAware Transoceanic
10:45PM 45.7034 172.9777 252° West 493 567 39,000  Level FlightAware Transoceanic
10:46PM 45.6617 172.7894 252° West 493 567 39,000  Level FlightAware Transoceanic
10:47PM 45.6197 172.6015 252° West 493 567 39,000 660 Level FlightAware Transoceanic
10:47PM 45.6833 172.8667 252° West 487 560 40,000  Climbing Oakland Oceanic (ODAPS)
10:48PM 45.5774 172.4138 252° West 493 567 39,000 -660 Descending FlightAware Transoceanic
10:49PM 45.5348 172.2264 252° West 493 567 39,000  Level FlightAware Transoceanic
10:50PM 45.4919 172.0392 252° West 493 567 39,000  Level FlightAware Transoceanic
10:51PM 45.4487 171.8524 252° West 493 567 39,000  Level FlightAware Transoceanic
10:52PM 45.4052 171.6659 252° West 493 567 39,000 480 Level FlightAware Transoceanic
10:53PM 45.3734 171.5203 251° West 487 560 40,000 480 Climbing FlightAware Transoceanic
10:54PM 45.3278 171.3292 251° West 487 560 40,000  Level FlightAware Transoceanic
10:55PM 45.2819 171.1384 251° West 487 560 40,000  Level FlightAware Transoceanic
10:56PM 45.2357 170.9478 251° West 487 560 40,000  Level FlightAware Transoceanic
10:57PM 45.1892 170.7576 251° West 487 560 40,000  Level FlightAware Transoceanic
10:58PM 45.1424 170.5678 251° West 487 560 40,000  Level FlightAware Transoceanic
10:59PM 45.0952 170.3782 251° West 487 560 40,000  Level FlightAware Transoceanic
11:00PM 45.0478 170.1889 250° West 487 560 40,000  Level FlightAware Transoceanic
11:01PM 45.0000 170.0000 258° West 487 560 40,000  Level FlightAware Transoceanic
11:02PM 44.9740 169.8281 258° West 487 560 40,000  Level FlightAware Transoceanic
11:03PM 44.9477 169.6563 258° West 487 560 40,000  Level FlightAware Transoceanic
11:04PM 44.9212 169.4847 258° West 487 560 40,000  Level FlightAware Transoceanic
11:05PM 44.8943 169.3133 257° West 487 560 40,000  Level FlightAware Transoceanic
11:06PM 44.8673 169.1420 257° West 487 560 40,000  Level FlightAware Transoceanic
11:07PM 44.8400 168.9709 257° West 487 560 40,000  Level FlightAware Transoceanic
11:08PM 44.8124 168.7999 257° West 487 560 40,000  Level FlightAware Transoceanic
11:09PM 44.7846 168.6291 257° West 487 560 40,000  Level FlightAware Transoceanic
11:10PM 44.7565 168.4585 257° West 487 560 40,000  Level FlightAware Transoceanic
11:11PM 44.7282 168.2881 257° West 487 560 40,000  Level FlightAware Transoceanic
11:12PM 44.6996 168.1178 257° West 487 560 40,000  Level FlightAware Transoceanic
11:13PM 44.6708 167.9476 257° West 487 560 40,000  Level FlightAware Transoceanic
11:14PM 44.6417 167.7777 256° West 487 560 40,000  Level FlightAware Transoceanic
11:15PM 44.6124 167.6079 256° West 487 560 40,000  Level FlightAware Transoceanic
11:16PM 44.5828 167.4383 256° West 487 560 40,000  Level FlightAware Transoceanic
11:17PM 44.5529 167.2688 256° West 487 560 40,000  Level FlightAware Transoceanic
11:18PM 44.5228 167.0996 256° West 487 560 40,000  Level FlightAware Transoceanic
11:19PM 44.4925 166.9305 256° West 487 560 40,000  Level FlightAware Transoceanic
11:20PM 44.4619 166.7616 256° West 487 560 40,000  Level FlightAware Transoceanic
11:21PM 44.4311 166.5928 256° West 487 560 40,000  Level FlightAware Transoceanic
11:22PM 44.4000 166.4243 255° West 487 560 40,000  Level FlightAware Transoceanic
11:23PM 44.3686 166.2559 255° West 487 560 40,000  Level FlightAware Transoceanic
11:24PM 44.3371 166.0877 255° West 487 560 40,000  Level FlightAware Transoceanic
11:25PM 44.3052 165.9197 255° West 487 560 40,000  Level FlightAware Transoceanic
11:26PM 44.2732 165.7519 255° West 487 560 40,000  Level FlightAware Transoceanic
11:27PM 44.2408 165.5842 255° West 487 560 40,000  Level FlightAware Transoceanic
11:28PM 44.2083 165.4168 255° West 487 560 40,000  Level FlightAware Transoceanic
11:28PM 45.0000 170.0000 258° West 487 560 40,000  Level Oakland Oceanic (ODAPS)
11:29PM 44.1755 165.2495 255° West 487 560 40,000  Level FlightAware Transoceanic
11:30PM 44.1424 165.0824 255° West 487 560 40,000  Level FlightAware Transoceanic
11:31PM 44.1091 164.9155 254° West 487 560 40,000  Level FlightAware Transoceanic
11:32PM 44.0756 164.7488 254° West 487 560 40,000  Level FlightAware Transoceanic
11:33PM 44.0418 164.5823 254° West 487 560 40,000  Level FlightAware Transoceanic
11:34PM 44.0078 164.4159 254° West 487 560 40,000  Level FlightAware Transoceanic
11:35PM 43.9537 164.1541 254° West 487 560 40,000  Level FlightAware Transoceanic
11:36PM 43.9184 163.9855 254° West 487 560 40,000  Level FlightAware Transoceanic
11:37PM 43.8830 163.8170 254° West 487 560 40,000  Level FlightAware Transoceanic
11:38PM 43.8472 163.6488 254° West 487 560 40,000  Level FlightAware Transoceanic
11:39PM 43.8113 163.4808 253° West 487 560 40,000  Level FlightAware Transoceanic
11:40PM 43.7751 163.3129 253° West 487 560 40,000  Level FlightAware Transoceanic
11:41PM 43.7386 163.1453 253° West 487 560 40,000  Level FlightAware Transoceanic
11:42PM 43.7019 162.9778 253° West 487 560 40,000  Level FlightAware Transoceanic
11:43PM 43.6649 162.8106 253° West 487 560 40,000  Level FlightAware Transoceanic
11:44PM 43.6277 162.6436 253° West 487 560 40,000  Level FlightAware Transoceanic
11:45PM 43.5903 162.4768 253° West 487 560 40,000  Level FlightAware Transoceanic
11:46PM 43.5526 162.3102 253° West 487 560 40,000  Level FlightAware Transoceanic
11:47PM 43.5147 162.1438 252° West 487 560 40,000  Level FlightAware Transoceanic
11:48PM 43.4765 161.9776 252° West 487 560 40,000  Level FlightAware Transoceanic
11:49PM 43.4381 161.8116 252° West 487 560 40,000  Level FlightAware Transoceanic
11:50PM 43.3995 161.6459 252° West 487 560 40,000  Level FlightAware Transoceanic
11:51PM 43.3606 161.4803 252° West 487 560 40,000  Level FlightAware Transoceanic
11:52PM 43.3215 161.3150 252° West 487 560 40,000  Level FlightAware Transoceanic
11:53PM 43.2821 161.1499 252° West 487 560 40,000  Level FlightAware Transoceanic
11:54PM 43.2425 160.9849 252° West 487 560 40,000  Level FlightAware Transoceanic
11:55PM 43.2027 160.8202 252° West 487 560 40,000  Level FlightAware Transoceanic
11:56PM 43.1626 160.6558 251° West 487 560 40,000  Level FlightAware Transoceanic
11:57PM 43.1223 160.4915 251° West 487 560 40,000  Level FlightAware Transoceanic
11:58PM 43.0818 160.3274 251° West 487 560 40,000  Level FlightAware Transoceanic
11:59PM 43.0410 160.1636 251° West 487 560 40,000  Level FlightAware Transoceanic
12:00AM 43.0000 160.0000 247° West 487 560 40,000  Level FlightAware Transoceanic
12:01AM 42.9516 159.8463 247° West 487 560 40,000  Level FlightAware Transoceanic
12:02AM 42.9029 159.6929 247° West 487 560 40,000  Level FlightAware Transoceanic
12:03AM 42.8540 159.5398 246° West 487 560 40,000  Level FlightAware Transoceanic
12:04AM 42.8050 159.3869 246° West 487 560 40,000  Level FlightAware Transoceanic
12:05AM 42.7557 159.2342 246° West 487 560 40,000  Level FlightAware Transoceanic
12:06AM 42.7063 159.0817 246° West 487 560 40,000  Level FlightAware Transoceanic
12:07AM 42.6566 158.9296 246° West 487 560 40,000  Level FlightAware Transoceanic
12:08AM 42.6067 158.7776 246° West 487 560 40,000  Level FlightAware Transoceanic
12:09AM 42.5567 158.6259 246° West 487 560 40,000  Level FlightAware Transoceanic
12:10AM 42.5064 158.4744 246° West 487 560 40,000  Level FlightAware Transoceanic
12:11AM 42.4559 158.3232 246° West 487 560 40,000  Level FlightAware Transoceanic
12:12AM 42.4053 158.1722 245° Southwest 487 560 40,000  Level FlightAware Transoceanic
12:13AM 42.3544 158.0215 245° Southwest 487 560 40,000  Level FlightAware Transoceanic
12:14AM 42.3034 157.8710 245° Southwest 487 560 40,000  Level FlightAware Transoceanic
12:15AM 42.2521 157.7208 245° Southwest 487 560 40,000  Level FlightAware Transoceanic
12:16AM 42.2006 157.5708 245° Southwest 487 560 40,000  Level FlightAware Transoceanic
12:17AM 42.1490 157.4210 245° Southwest 487 560 40,000  Level FlightAware Transoceanic
12:18AM 42.0972 157.2715 245° Southwest 487 560 40,000  Level FlightAware Transoceanic
12:19AM 42.0451 157.1223 245° Southwest 487 560 40,000  Level FlightAware Transoceanic
12:20AM 41.9929 156.9733 245° Southwest 487 560 40,000  Level FlightAware Transoceanic
12:21AM 41.9405 156.8245 245° Southwest 487 560 40,000  Level FlightAware Transoceanic
12:22AM 41.8879 156.6759 244° Southwest 487 560 40,000  Level FlightAware Transoceanic
12:23AM 41.8351 156.5277 244° Southwest 487 560 40,000  Level FlightAware Transoceanic
12:24AM 41.7821 156.3796 244° Southwest 487 560 40,000  Level FlightAware Transoceanic
12:25AM 41.7289 156.2318 244° Southwest 487 560 40,000  Level FlightAware Transoceanic
12:26AM 41.6755 156.0843 244° Southwest 487 560 40,000  Level FlightAware Transoceanic
12:27AM 41.6220 155.9370 244° Southwest 487 560 40,000  Level FlightAware Transoceanic
12:28AM 41.5682 155.7899 244° Southwest 487 560 40,000  Level FlightAware Transoceanic
12:29AM 41.5143 155.6431 244° Southwest 487 560 40,000  Level FlightAware Transoceanic
12:30AM 41.4602 155.4965 244° Southwest 487 560 40,000  Level FlightAware Transoceanic
12:31AM 41.4058 155.3502 244° Southwest 487 560 40,000  Level FlightAware Transoceanic
12:32AM 41.3513 155.2041 244° Southwest 487 560 40,000  Level FlightAware Transoceanic
12:33AM 41.2967 155.0583 243° Southwest 487 560 40,000  Level FlightAware Transoceanic
12:34AM 41.2418 154.9127 243° Southwest 487 560 40,000  Level FlightAware Transoceanic
12:35AM 41.1868 154.7674 243° Southwest 487 560 40,000  Level FlightAware Transoceanic
12:36AM 41.1315 154.6223 243° Southwest 487 560 40,000  Level FlightAware Transoceanic
12:37AM 41.0761 154.4774 243° Southwest 487 560 40,000  Level FlightAware Transoceanic
12:38AM 41.0205 154.3328 243° Southwest 487 560 40,000  Level FlightAware Transoceanic
12:39AM 40.9648 154.1884 243° Southwest 487 560 40,000  Level FlightAware Transoceanic
12:40AM 40.9088 154.0443 243° Southwest 487 560 40,000  Level FlightAware Transoceanic
12:41AM 40.8527 153.9004 243° Southwest 487 560 40,000  Level FlightAware Transoceanic
12:42AM 40.7964 153.7568 243° Southwest 487 560 40,000  Level FlightAware Transoceanic
12:43AM 40.7399 153.6134 242° Southwest 487 560 40,000  Level FlightAware Transoceanic
12:44AM 40.6833 153.4702 242° Southwest 487 560 40,000  Level FlightAware Transoceanic
12:45AM 40.6264 153.3273 242° Southwest 487 560 40,000  Level FlightAware Transoceanic
12:46AM 40.5694 153.1847 242° Southwest 487 560 40,000  Level FlightAware Transoceanic
12:47AM 40.5122 153.0423 242° Southwest 487 560 40,000  Level FlightAware Transoceanic
12:48AM 40.4548 152.9001 242° Southwest 487 560 40,000  Level FlightAware Transoceanic
12:49AM 40.3973 152.7582 242° Southwest 487 560 40,000  Level FlightAware Transoceanic
12:50AM 40.3396 152.6165 242° Southwest 487 560 40,000  Level FlightAware Transoceanic
12:51AM 40.2817 152.4750 242° Southwest 487 560 40,000  Level FlightAware Transoceanic
12:52AM 40.2237 152.3338 242° Southwest 487 560 40,000  Level FlightAware Transoceanic
12:53AM 40.1654 152.1929 242° Southwest 487 560 40,000  Level FlightAware Transoceanic
12:54AM 40.1070 152.0521 241° Southwest 487 560 40,000  Level FlightAware Transoceanic
12:55AM 40.0485 151.9117 241° Southwest 487 560 40,000  Level FlightAware Transoceanic
12:56AM 39.9897 151.7714 241° Southwest 487 560 40,000  Level FlightAware Transoceanic
12:57AM 39.9308 151.6314 241° Southwest 487 560 40,000  Level FlightAware Transoceanic
12:58AM 39.8718 151.4917 241° Southwest 487 560 40,000  Level FlightAware Transoceanic
12:59AM 39.8125 151.3522 241° Southwest 487 560 40,000  Level FlightAware Transoceanic
01:00AM 39.7531 151.2129 241° Southwest 487 560 40,000  Level FlightAware Transoceanic
01:01AM 39.6935 151.0739 241° Southwest 487 560 40,000  Level FlightAware Transoceanic
01:02AM 39.6338 150.9351 241° Southwest 487 560 40,000  Level FlightAware Transoceanic
01:03AM 39.5739 150.7965 241° Southwest 487 560 40,000  Level FlightAware Transoceanic
01:04AM 39.5138 150.6582 241° Southwest 487 560 40,000  Level FlightAware Transoceanic
01:05AM 39.4536 150.5201 240° Southwest 487 560 40,000  Level FlightAware Transoceanic
01:06AM 39.3932 150.3823 240° Southwest 487 560 40,000  Level FlightAware Transoceanic
01:07AM 39.3326 150.2447 240° Southwest 487 560 40,000  Level FlightAware Transoceanic
01:08AM 39.2719 150.1073 240° Southwest 487 560 40,000  Level FlightAware Transoceanic
01:09AM 39.2110 149.9702 240° Southwest 487 560 40,000  Level FlightAware Transoceanic
01:10AM 39.1520 149.8217 243° Southwest  Level FlightAware Approximate
01:11AM 39.1489 149.8134 246° West  Level FlightAware Approximate
01:12AM 39.0964 149.6609 246° West  Level FlightAware Approximate
01:13AM 39.0438 149.5087 246° West  Level FlightAware Approximate
01:14AM 38.9910 149.3566 246° West  Level FlightAware Approximate
01:15AM 38.9380 149.2048 246° West  Level FlightAware Approximate
01:16AM 38.8847 149.0533 246° West  Level FlightAware Approximate
01:17AM 38.8313 148.9019 246° West  Level FlightAware Approximate
01:18AM 38.7780 148.7506 247° West  Level FlightAware Approximate
01:19AM 38.7266 148.5983 247° West  Level FlightAware Approximate
01:20AM 38.6751 148.4462 247° West  Level FlightAware Approximate
01:21AM 38.6234 148.2943 246° West  Level FlightAware Approximate
01:22AM 38.5715 148.1427 246° West  Level FlightAware Approximate
01:23AM 38.5194 147.9912 246° West  Level FlightAware Approximate
01:24AM 38.4657 147.8408 245° Southwest  Level FlightAware Approximate
01:25AM 38.4117 147.6907 245° Southwest  Level FlightAware Approximate
01:26AM 38.3575 147.5408 245° Southwest  Level FlightAware Approximate
01:27AM 38.3031 147.3911 245° Southwest  Level FlightAware Approximate
01:28AM 38.2486 147.2417 245° Southwest  Level FlightAware Approximate
01:29AM 38.1938 147.0924 245° Southwest  Level FlightAware Approximate
01:30AM 38.1388 146.9435 245° Southwest  Level FlightAware Approximate
01:31AM 38.0837 146.7947 245° Southwest  Level FlightAware Approximate
01:32AM 38.0283 146.6462 245° Southwest  Level FlightAware Approximate
01:33AM 37.9728 146.4979 245° Southwest  Level FlightAware Approximate
01:34AM 37.9170 146.3498 245° Southwest  Level FlightAware Approximate
01:34AM 37.5800 146.4380 245° Southwest 452 520 41,000  Level FlightAware
01:34AM 37.5340 146.3460 238° Southwest 453 521 41,000  Level FlightAware
01:35AM 37.4940 146.2630 239° Southwest 453 521 41,000  Level FlightAware
01:35AM 37.4570 146.1880 238° Southwest 453 521 41,000  Level FlightAware
01:36AM 37.4160 146.1060 238° Southwest 455 524 41,000  Level FlightAware
01:37AM 37.3600 145.9920 238° Southwest 455 524 41,000  Level FlightAware
01:38AM 37.3230 145.9170 238° Southwest 457 526 41,000  Level FlightAware
01:38AM 37.2650 145.8010 238° Southwest 458 527 41,000  Level FlightAware
01:39AM 37.2220 145.7150 238° Southwest 458 527 41,000  Level FlightAware
01:40AM 37.1920 145.6110 250° West 442 509 41,000  Level FlightAware
01:40AM 37.1870 145.5710 261° West 458 527 41,000  Level FlightAware
01:41AM 37.1520 145.5000 238° Southwest 458 527 41,000  Level FlightAware
01:41AM 37.1720 145.4580 301° West 443 510 41,000  Level FlightAware
01:41AM 37.1520 145.3700 254° West 443 510 41,000  Level FlightAware
01:42AM 37.1250 145.3300 230° Southwest 452 520 41,000  Level FlightAware
01:42AM 37.0950 145.2620 241° Southwest 452 520 41,000  Level FlightAware
01:43AM 37.0550 145.1700 241° Southwest 450 518 41,000  Level FlightAware
01:43AM 37.0250 145.1000 242° Southwest 455 524 41,000  Level FlightAware
01:44AM 36.9850 145.0070 242° Southwest 455 524 41,000  Level FlightAware
01:45AM 36.9450 144.9150 241° Southwest 453 521 41,000  Level FlightAware
01:45AM 36.9070 144.8270 242° Southwest 458 527 41,000 -540 Level FlightAware
01:46AM 36.8720 144.7490 241° Southwest 458 527 40,400 -1,200 Descending FlightAware
01:47AM 36.8290 144.6500 242° Southwest 452 520 39,500 -1,380 Descending FlightAware
01:47AM 36.7900 144.5600 242° Southwest 456 525 38,600 -1,500 Descending FlightAware
01:48AM 36.7490 144.4680 241° Southwest 457 526 37,600 -1,500 Descending FlightAware
01:49AM 36.7070 144.3740 241° Southwest 461 531 36,600 -1,140 Descending FlightAware
01:49AM 36.6510 144.2460 241° Southwest 465 535 35,700 -1,620 Descending FlightAware
01:50AM 36.6070 144.1480 241° Southwest 471 542 34,100 -1,440 Descending FlightAware
01:51AM 36.5700 144.0650 241° Southwest 473 544 34,000 -120 Descending FlightAware
01:51AM 36.5330 143.9820 241° Southwest 474 545 34,000  Level FlightAware
01:52AM 36.4950 143.8990 240° Southwest 472 543 34,000  Level FlightAware
01:52AM 36.4600 143.8210 241° Southwest 472 543 34,000  Level FlightAware
01:53AM 36.4200 143.7320 241° Southwest 472 543 34,000  Level FlightAware
01:54AM 36.3840 143.6520 241° Southwest 473 544 34,000  Level FlightAware
01:54AM 36.3390 143.5530 241° Southwest 474 545 34,000 -120 Level FlightAware
01:55AM 36.3030 143.4730 241° Southwest 477 549 33,900 -600 Descending FlightAware
01:55AM 36.2700 143.3900 244° Southwest 473 544 33,300 -1,320 Descending FlightAware
01:56AM 36.2360 143.2960 246° West 480 552 32,400 -1,560 Descending FlightAware
01:57AM 36.2050 143.2100 246° West 483 556 31,500 -1,800 Descending FlightAware
01:57AM 36.1730 143.1220 246° West 490 564 30,300 -1,200 Descending FlightAware
01:58AM 36.1330 143.0130 246° West 508 585 30,000 -300 Descending FlightAware
01:58AM 36.1050 142.9340 246° West 505 581 30,000  Level FlightAware
01:59AM 36.0710 142.8430 245° Southwest 504 580 30,000  Level FlightAware
02:00AM 36.0380 142.7520 246° West 502 578 30,000  Level FlightAware
02:00AM 36.0050 142.6610 246° West 497 572 30,000  Level FlightAware
02:01AM 35.9690 142.5640 245° Southwest 494 568 30,000  Level FlightAware
02:02AM 35.9240 142.4400 246° West 491 565 30,000 -540 Level FlightAware
02:02AM 35.9040 142.3460 255° West 490 564 29,300 -1,680 Descending FlightAware
02:03AM 35.9010 142.2460 268° West 500 575 28,100 -1,920 Descending FlightAware
02:03AM 35.8970 142.1470 267° West 506 582 27,100 -1,740 Descending FlightAware
02:04AM 35.8940 142.0460 268° West 509 586 26,100 -1,320 Descending FlightAware
02:04AM 35.8910 141.9450 268° West 503 579 25,600 -960 Descending FlightAware
02:05AM 35.8870 141.8310 268° West 497 572 24,900 -1,080 Descending FlightAware
02:06AM 35.8820 141.7060 267° West 492 566 24,100 -1,080 Descending FlightAware
02:06AM 35.8790 141.6060 268° West 489 563 23,500 -1,140 Descending FlightAware
02:07AM 35.8750 141.5110 267° West 464 534 22,800 -1,380 Descending FlightAware
02:08AM 35.8730 141.4620 267° West 447 514 21,900 -3,420 Descending FlightAware
02:08AM 35.8680 141.3240 267° West 409 471 18,400 -4,740 Descending FlightAware
02:09AM 35.8660 141.2530 268° West 398 458 16,300 -4,320 Descending FlightAware
02:09AM 35.8620 141.1620 267° West 390 449 13,400 -3,660 Descending FlightAware
02:10AM 35.8590 141.0870 267° West 359 413 11,800 -2,100 Descending FlightAware
02:11AM 35.8560 141.0230 267° West 299 344 11,000 -1,140 Descending FlightAware
02:11AM 35.8540 140.9690 267° West 270 311 10,500 -720 Descending FlightAware
02:12AM 35.8610 140.9180 280° West 261 300 10,200 -780 Descending FlightAware
02:12AM 35.8730 140.8910 299° West 254 292 9,800 -1,080 Descending FlightAware
02:12AM 35.8830 140.8660 296° West 251 289 9,500 -900 Descending FlightAware
02:13AM 35.8950 140.8400 300° West 246 283 9,200 -1,080 Descending FlightAware
02:13AM 35.9030 140.8210 297° West 249 287 8,900 -1,260 Descending FlightAware
02:13AM 35.9140 140.7970 300° West 248 285 8,500 -1,200 Descending FlightAware
02:14AM 35.9250 140.7710 298° West 248 285 8,100 -1,380 Descending FlightAware
02:14AM 35.9330 140.7530 299° West 246 283 7,700 -1,380 Descending FlightAware
02:14AM 35.9470 140.7210 298° West 248 285 7,200 -840 Descending FlightAware
02:15AM 35.9580 140.6960 299° West 248 285 7,100 -180 Descending FlightAware
02:15AM 35.9690 140.6700 298° West 249 287 7,100  Level FlightAware
02:15AM 35.9800 140.6460 300° West 247 284 7,100  Level FlightAware
02:16AM 35.9910 140.6210 299° West 250 288 7,100 -180 Level FlightAware
02:16AM 36.0020 140.5950 298° West 250 288 7,000 -540 Descending FlightAware
02:16AM 36.0100 140.5760 298° West 250 288 6,800 -900 Descending FlightAware
02:17AM 36.0240 140.5440 298° West 249 287 6,400 -960 Descending FlightAware
02:17AM 36.0350 140.5190 299° West 254 292 6,100 -480 Descending FlightAware
02:17AM 36.0460 140.4930 298° West 250 288 6,100  Level FlightAware
02:18AM 36.0550 140.4730 299° West 250 288 6,100  Level FlightAware
02:18AM 36.0650 140.4500 298° West 239 275 6,100  Level FlightAware
02:18AM 36.0710 140.4370 300° West 229 264 6,100  Level FlightAware
02:19AM 36.0900 140.3910 297° West 232 267 6,100  Level FlightAware
02:19AM 36.1010 140.3660 299° West 231 266 6,100  Level FlightAware
02:19AM 36.1090 140.3480 299° West 230 265 6,100  Level FlightAware
02:20AM 36.1180 140.3240 295° West 213 245 6,100  Level FlightAware
02:20AM 36.1200 140.3090 279° West 205 236 6,100 -360 Level FlightAware
02:20AM 36.1200 140.2850 270° West 200 230 5,900 -960 Descending FlightAware
02:21AM 36.1200 140.2340 270° West 206 237 5,100 -1,260 Descending FlightAware
02:21AM 36.1170 140.2160 258° West 208 239 4,800 -900 Descending FlightAware
02:21AM 36.1130 140.2040 248° West 209 241 4,700 -900 Descending FlightAware
02:22AM 36.1080 140.1950 235° Southwest 209 241 4,500 -1,200 Descending FlightAware
02:22AM 36.0990 140.1860 219° Southwest 210 242 4,300 -900 Descending FlightAware
02:22AM 36.0920 140.1820 205° Southwest 209 241 4,200 -780 Descending FlightAware
02:22AM 36.0840 140.1790 197° South 207 238 4,100 -420 Descending FlightAware
02:22AM 36.0760 140.1770 191° South 207 238 4,100  Level FlightAware
02:23AM 36.0570 140.1770 180° South 207 238 4,100  Level FlightAware
02:23AM 36.0280 140.1840 169° South 213 245 4,100  Level FlightAware
02:23AM 36.0140 140.1940 150° Southeast 214 246 4,100  Level FlightAware
02:24AM 35.9920 140.2100 150° Southeast 212 244 4,100  Level FlightAware
02:24AM 35.9800 140.2190 149° Southeast 210 242 4,100  Level FlightAware
02:24AM 35.9620 140.2320 150° Southeast 209 241 4,100 -180 Level FlightAware
02:25AM 35.9460 140.2440 149° Southeast 198 228 4,000 -780 Descending FlightAware
02:25AM 35.9310 140.2550 149° Southeast 199 229 3,600 -1,200 Descending FlightAware
02:25AM 35.9150 140.2660 151° Southeast 190 219 3,200 -900 Descending FlightAware
02:26AM 35.9020 140.2760 148° Southeast 175 201 3,000 -900 Descending FlightAware
02:26AM 35.8880 140.2860 150° Southeast 156 180 2,600 -1,020 Descending FlightAware
02:26AM 35.8810 140.2910 150° Southeast 147 169 2,500 -720 Descending FlightAware
02:27AM 35.8680 140.3010 148° Southeast 142 163 2,200 -780 Descending FlightAware
02:27AM 35.8590 140.3070 152° Southeast 142 163 2,000 -720 Descending FlightAware
02:27AM 35.8470 140.3160 149° Southeast 144 166 1,800 -780 Descending FlightAware
02:28AM 35.8360 140.3240 149° Southeast 144 166 1,500 -780 Descending FlightAware
02:28AM 35.8260 140.3310 150° Southeast 143 165 1,300 -720 Descending FlightAware
02:28AM 35.8110 140.3420 149° Southeast 145 167 1,000 -720 Descending FlightAware
02:29AM 35.7950 140.3530 151° Southeast 145 167 700 -720 Descending FlightAware
02:29AM 35.7840 140.3610 149° Southeast 144 166 500 -360 Descending FlightAware
02:30AM 35.7660 140.3750 148° Southeast 145 167 400 -180 Descending FlightAware
02:32AM 35.7647 140.3864 253° West  Level Estimated
02:33AM 35.7647 140.3864 253° West  Level Estimated
02:34AM 35.7647 140.3864 253° West  Level Estimated
02:35AM 35.7647 140.3864 253° West  Level Estimated
02:36AM 35.7647 140.3864 253° West  Level Estimated
02:37AM 35.7647 140.3864 253° West  Level Estimated
02:38AM 35.7647 140.3864 253° West  Level Estimated
02:39AM 35.7647 140.3864 253° West  Level Estimated
02:40AM 35.7647 140.3864 253° West  Level Estimated
02:41AM 35.7647 140.3864 253° West  Level Estimated
02:42AM 35.7647 140.3864 253° West  Level Estimated
02:43AM 35.7647 140.3864 253° West  Level Estimated
02:44AM 35.7647 140.3864 253° West  Level Estimated
02:45AM 35.7647 140.3864 253° West  Level Estimated